Flight Track Log - Related Links

Times and Time Zones

All times are in EST time to prevent confusion due to time zone crossing. See the UAL4407 flight status page for this flight to view local times or setup timezone preferences in your user account.

Time Position Orientation Groundspeed Altitude Reporting Facility
EST Latitude Longitude Course Direction KTS MPH feet Rate Location/Type
08:11AM 40.6333 -74.2167 294° West 192 221 2,200  Level New York TRACON
08:12AM 40.6333 -74.3000 270° West 251 289 4,300 2,650 Climbing New York TRACON
08:13AM 40.7401 -74.5580 287° West  Level Estimated
08:13AM 40.6333 -74.4000 270° West 247 284 7,500  Level New York TRACON
08:14AM 40.7791 -74.6790 293° West  Level FlightAware Approximate
08:14AM 40.6333 -74.4833 270° West 250 288 10,200  Level New York TRACON
08:15AM 40.7944 -74.8091 288° West  Level Estimated
08:15AM 40.6667 -74.5500 303° West 295 339 11,300  Level New York TRACON
08:16AM 40.8095 -74.9392 294° West  Level Estimated
08:16AM 40.7667 -74.6167 333° Northwest 357 411 12,000  Level New York TRACON
08:17AM 40.8500 -74.6833 329° Northwest 371 427 13,500 816 Climbing New York TRACON
08:19AM 40.9600 -74.7883 324° Northwest 383 441 14,000 204 Climbing New York Center
08:20AM 40.9444 -74.9328 262° West 321 369 14,000 600 Level New York Center
08:21AM 40.9297 -75.0583 261° West 348 400 15,200 1,550 Climbing New York Center
08:22AM 40.9144 -75.1836 261° West 355 409 17,100 1,850 Climbing New York Center
08:23AM 40.8917 -75.2919 254° West 349 402 18,900 1,950 Climbing New York Center
08:24AM 40.8664 -75.4056 254° West 338 389 21,000 1,820 Climbing New York Center
08:25AM 40.8392 -75.5189 252° West 327 376 22,600 1,550 Climbing New York Center
08:26AM 40.8136 -75.6322 253° West 327 376 24,100 1,576 Climbing New York Center
08:27AM 40.7861 -75.7456 252° West 327 376 25,700 1,750 Climbing New York Center
08:28AM 40.7606 -75.8561 253° West 322 371 27,600 1,900 Climbing New York Center
08:29AM 40.7331 -75.9608 251° West 317 365 29,500 1,850 Climbing New York Center
08:30AM 40.7097 -76.0603 253° West 312 359 31,300 1,650 Climbing New York Center
08:31AM 40.7031 -76.1611 265° West 293 337 32,800 1,350 Climbing New York Center
08:32AM 40.7194 -76.2581 283° West 281 323 34,000 600 Climbing New York Center
08:33AM 40.7336 -76.3608 280° West 281 323 34,000  Level New York Center
08:34AM 40.7486 -76.4797 279° West 300 345 34,000  Level New York Center
08:35AM 40.7636 -76.6017 279° West 323 372 34,000  Level New York Center
08:36AM 40.7819 -76.7347 280° West 352 405 34,000  Level New York Center
08:37AM 40.7997 -76.8761 279° West 375 432 34,000  Level New York Center
08:38AM 40.8175 -77.0147 280° West 388 447 34,000  Level New York Center
08:39AM 40.8369 -77.1592 280° West 393 452 34,000  Level New York Center
08:40AM 40.8544 -77.2953 280° West 393 452 34,000  Level New York Center
08:42AM 40.8889 -77.5667 280° West 391 450 34,000  Level Cleveland Center
08:43AM 40.9064 -77.7078 279° West 391 450 34,000  Level Cleveland Center
08:44AM 40.9236 -77.8489 279° West 391 450 34,000  Level Cleveland Center
08:45AM 40.9397 -77.9894 279° West 390 449 34,000  Level Cleveland Center
08:46AM 40.9600 -78.1581 279° West 390 449 34,000  Level Cleveland Center
08:47AM 40.9769 -78.3000 279° West 391 450 34,000 145 Level Cleveland Center
08:48AM 40.9936 -78.4392 279° West 389 448 34,300 634 Climbing Cleveland Center
08:49AM 41.0081 -78.5692 278° West 373 429 35,300 823 Climbing Cleveland Center
08:50AM 41.0219 -78.6981 278° West 359 413 36,000 339 Climbing Cleveland Center
08:51AM 41.0364 -78.8253 279° West 353 406 36,000  Level Cleveland Center
08:52AM 41.0536 -78.9875 278° West 370 426 36,000  Level Cleveland Center
08:53AM 41.0694 -79.1233 279° West 375 432 36,000  Level Cleveland Center
08:54AM 41.0831 -79.2597 278° West 376 433 36,000  Level Cleveland Center
08:55AM 41.0989 -79.3983 279° West 382 440 36,000  Level Cleveland Center
08:56AM 41.1131 -79.5364 278° West 381 438 36,000  Level Cleveland Center
08:57AM 41.1283 -79.6858 278° West 381 438 36,000  Level Cleveland Center
08:58AM 41.1433 -79.8253 278° West 384 442 36,000  Level Cleveland Center
08:59AM 41.1600 -79.9925 278° West 384 442 36,000  Level Cleveland Center
09:00AM 41.1736 -80.1194 278° West 382 440 36,000  Level Cleveland Center
09:01AM 41.1872 -80.2589 277° West 383 441 36,000  Level Cleveland Center
09:02AM 41.2019 -80.4000 278° West 379 436 36,000  Level Cleveland Center
09:03AM 41.2172 -80.5656 277° West 383 441 36,000  Level Cleveland Center
09:04AM 41.2308 -80.7069 277° West 384 442 36,000  Level Cleveland Center
09:05AM 41.2433 -80.8489 277° West 385 443 36,000  Level Cleveland Center
09:06AM 41.2556 -80.9914 277° West 386 444 36,000  Level Cleveland Center
09:07AM 41.2689 -81.1319 277° West 383 441 36,000  Level Cleveland Center
09:08AM 41.2819 -81.2725 277° West 381 438 36,000  Level Cleveland Center
09:10AM 41.2939 -81.4204 276° West  Level FlightAware Approximate
09:10AM 41.3078 -81.5689 276° West 383 441 36,000  Level Cleveland Center
09:12AM 41.3197 -81.7069 277° West 380 437 36,000  Level Cleveland Center
09:13AM 41.3325 -81.8461 277° West 379 436 36,000  Level Cleveland Center
09:14AM 41.3433 -81.9864 276° West 381 438 36,000  Level Cleveland Center
09:15AM 41.3569 -82.1531 276° West 379 436 36,000  Level Cleveland Center
09:16AM 41.3658 -82.2939 275° West 378 435 36,000  Level Cleveland Center
09:17AM 41.3742 -82.4347 275° West 378 435 36,000  Level Cleveland Center
09:18AM 41.3819 -82.5761 274° West 379 436 36,000  Level Cleveland Center
09:19AM 41.3906 -82.7178 275° West 380 437 36,000  Level Cleveland Center
09:20AM 41.3975 -82.8575 274° West 377 434 36,000  Level Cleveland Center
09:21AM 41.4056 -82.9989 274° West 379 436 36,000  Level Cleveland Center
09:22AM 41.4136 -83.1628 274° West 377 434 36,000  Level Cleveland Center
09:23AM 41.4200 -83.2839 274° West 375 432 36,000  Level Cleveland Center
09:24AM 41.4275 -83.4517 273° West 378 435 36,000  Level Cleveland Center
09:25AM 41.4344 -83.5917 274° West 379 436 36,000  Level Cleveland Center
09:26AM 41.4408 -83.7303 274° West 376 433 36,000  Level Cleveland Center
09:27AM 41.4475 -83.8708 274° West 379 436 36,000  Level Cleveland Center
09:28AM 41.4542 -84.0122 274° West 382 440 36,000  Level Cleveland Center
09:29AM 41.4608 -84.1522 274° West 379 436 36,000  Level Cleveland Center
09:30AM 41.4656 -84.2558 274° West 381 438 36,000  Level Chicago Center
09:31AM 41.4714 -84.3961 273° West 381 438 36,000  Level Chicago Center
09:32AM 41.4778 -84.5350 274° West 377 434 36,000  Level Chicago Center
09:33AM 41.4831 -84.6756 273° West 380 437 36,000  Level Chicago Center
09:34AM 41.4872 -84.8164 272° West 381 438 36,000  Level Chicago Center
09:35AM 41.4942 -84.9875 273° West 385 443 36,000  Level Chicago Center
09:36AM 41.4986 -85.1306 272° West 386 444 36,000  Level Chicago Center
09:37AM 41.5028 -85.2739 272° West 385 443 36,000  Level Chicago Center
09:38AM 41.5078 -85.4189 273° West 384 442 36,000  Level Chicago Center
09:39AM 41.5119 -85.5633 272° West 383 441 36,000  Level Chicago Center
09:40AM 41.5164 -85.7056 272° West 381 438 36,000  Level Chicago Center
09:41AM 41.5206 -85.8475 272° West 382 440 36,000  Level Chicago Center
09:42AM 41.5239 -85.9903 272° West 383 441 36,000  Level Chicago Center
09:43AM 41.5272 -86.1608 272° West 385 443 36,000  Level Chicago Center
09:44AM 41.5308 -86.3044 272° West 387 445 36,000  Level Chicago Center
09:45AM 41.5297 -86.4458 269° West 384 442 36,000  Level Chicago Center
09:46AM 41.5344 -86.5908 273° West 388 447 36,000  Level Chicago Center
09:47AM 41.5372 -86.7311 272° West 389 448 36,000  Level Chicago Center
09:48AM 41.5400 -86.9028 271° West 389 448 36,000  Level Chicago Center
09:49AM 41.5408 -87.0478 270° West 391 450 36,000  Level Chicago Center
09:50AM 41.5422 -87.1917 271° West 391 450 36,000  Level Chicago Center
09:51AM 41.5425 -87.3372 270° West 393 452 36,000  Level Chicago Center
09:52AM 41.5444 -87.4803 271° West 390 449 36,000  Level Chicago Center
09:54AM 41.5450 -87.6525 270° West 390 449 36,000  Level Chicago Center
09:55AM 41.5458 -87.7972 270° West 392 451 36,000  Level Chicago Center
09:56AM 41.5456 -87.9406 270° West 391 450 36,000  Level Chicago Center
09:57AM 41.5458 -88.0819 270° West 392 451 36,000  Level Chicago Center
09:58AM 41.5464 -88.2519 270° West 391 450 36,000  Level Chicago Center
09:59AM 41.5464 -88.3950 270° West 391 450 36,000  Level Chicago Center
10:00AM 41.5475 -88.5403 271° West 393 452 36,000  Level Chicago Center
10:01AM 41.5481 -88.6864 270° West 396 456 36,000  Level Chicago Center
10:02AM 41.5483 -88.8339 270° West 399 459 36,000  Level Chicago Center
10:03AM 41.5483 -89.0103 270° West 398 458 36,000  Level Chicago Center
10:04AM 41.5478 -89.1556 270° West 396 456 36,000  Level Chicago Center
10:05AM 41.5486 -89.3025 270° West 398 458 36,000  Level Chicago Center
10:06AM 41.5489 -89.4486 270° West 394 453 36,000  Level Chicago Center
10:07AM 41.5481 -89.6142 270° West 398 458 36,000  Level Chicago Center
10:08AM 41.5469 -89.7614 269° West 400 460 36,000  Level Chicago Center
10:09AM 41.5464 -89.9094 270° West 401 461 36,000  Level Chicago Center
10:10AM 41.5450 -90.0572 269° West 402 463 36,000  Level Chicago Center
10:11AM 41.5442 -90.2053 270° West 402 463 36,000  Level Chicago Center
10:12AM 41.5403 -90.3583 268° West 414 476 36,000  Level Chicago Center
10:13AM 41.5394 -90.5356 270° West 401 461 36,000  Level Chicago Center
10:14AM 41.5361 -90.6697 268° West 400 460 36,000  Level Chicago Center
10:15AM 41.5347 -90.8192 269° West 405 466 36,000  Level Chicago Center
10:16AM 41.5314 -90.9983 269° West 405 466 36,000  Level Chicago Center
10:17AM 41.5300 -91.1478 269° West 405 466 36,000  Level Chicago Center
10:18AM 41.5264 -91.2989 268° West 407 468 36,000  Level Chicago Center
10:19AM 41.5233 -91.4494 268° West 409 471 36,000  Level Chicago Center
10:20AM 41.5200 -91.6003 268° West 409 471 36,000  Level Chicago Center
10:21AM 41.5158 -91.7508 268° West 409 471 36,000  Level Chicago Center
10:22AM 41.5094 -91.9336 267° West 410 472 36,000  Level Chicago Center
10:23AM 41.5047 -92.0844 268° West 412 474 36,000  Level Chicago Center
10:24AM 41.4983 -92.2353 267° West 409 471 36,000  Level Chicago Center
10:26AM 41.4933 -92.3775 267° West 392 451 36,000  Level Chicago Center
10:27AM 41.4872 -92.5203 267° West 394 453 36,000  Level Chicago Center
10:28AM 41.4800 -92.6953 267° West 397 457 36,000 -308 Level Chicago Center
10:29AM 41.4750 -92.8100 267° West 394 453 35,400 -1,026 Descending Minneapolis Center
10:30AM 41.4689 -92.9758 267° West 383 441 34,000 -677 Descending Minneapolis Center
10:31AM 41.4622 -93.1108 266° West 374 430 34,000  Level Minneapolis Center
10:32AM 41.4567 -93.2456 267° West 369 425 34,000  Level Minneapolis Center
10:33AM 41.4500 -93.3844 266° West 374 430 34,000  Level Minneapolis Center
10:34AM 41.4433 -93.5250 266° West 380 437 34,000  Level Minneapolis Center
10:35AM 41.4406 -93.6903 269° West 378 435 34,000  Level Minneapolis Center
10:36AM 41.4481 -93.8297 274° West 381 438 34,000 -435 Level Minneapolis Center
10:37AM 41.4553 -93.9669 274° West 378 435 33,100 -1,210 Descending Minneapolis Center
10:38AM 41.4636 -94.1036 275° West 374 430 31,500 -1,742 Descending Minneapolis Center
10:39AM 41.4700 -94.2614 273° West 390 449 29,500 -1,824 Descending Minneapolis Center
10:40AM 41.4775 -94.4058 274° West 391 450 27,700 -1,776 Descending Minneapolis Center
10:41AM 41.4850 -94.5489 274° West 387 445 25,800 -1,887 Descending Minneapolis Center
10:42AM 41.4922 -94.6931 274° West 390 449 23,800 -2,323 Descending Minneapolis Center
10:43AM 41.5008 -94.8725 274° West 404 465 21,000 -2,667 Descending Minneapolis Center
10:43AM 41.5164 -94.9022 305° West 405 466 20,600 -2,769 Descending Minneapolis Center
10:44AM 41.5194 -95.0272 272° West 367 422 18,000 -2,842 Descending Minneapolis Center
10:45AM 41.5131 -95.1403 266° West 357 411 15,200 -3,200 Descending Minneapolis Center
10:45AM 41.5233 -95.1661 298° West 344 396 14,800 -2,806 Descending Minneapolis Center
10:46AM 41.4897 -95.2597 244° Southwest 345 397 12,300 -2,121 Descending Minneapolis Center
10:47AM 41.4719 -95.3869 259° West 316 364 10,700 -1,452 Descending Minneapolis Center
10:47AM 41.4672 -95.3739 116° Southeast 332 382 10,800 -1,574 Climbing Minneapolis Center
10:48AM 41.4517 -95.4869 260° West 266 306 9,100 -1,548 Descending Minneapolis Center
10:48AM 41.4469 -95.4758 120° Southeast 309 356 9,200 -1,971 Climbing Minneapolis Center
10:49AM 41.4306 -95.5911 259° West 281 323 6,800 -2,182 Descending Minneapolis Center
10:49AM 41.4317 -95.6228 273° West 269 310 6,400 -1,789 Descending Minneapolis Center
10:50AM 41.4239 -95.6906 261° West 272 313 5,100 -1,787 Descending Minneapolis Center
10:50AM 41.4197 -95.6908 183° South 274 315 5,000 -1,770 Descending Minneapolis Center
10:51AM 41.4119 -95.7947 264° West 265 305 3,300 -1,742 Descending Minneapolis Center
10:51AM 41.4097 -95.7894 119° Southeast 271 312 3,200 -327 Descending Minneapolis Center
10:52AM 41.4047 -95.8736 265° West 224 258 3,000 -194 Descending Minneapolis Center
10:52AM 41.4025 -95.8772 231° Southwest 259 298 3,000 -500 Level Minneapolis Center
10:53AM 41.3944 -95.9414 261° West 176 203 2,500 -581 Descending Minneapolis Center
10:53AM 41.3922 -95.9386 137° Southeast 215 247 2,400 -436 Descending Minneapolis Center
10:54AM 41.3556 -95.9514 195° South 146 168 2,100 -561 Descending Minneapolis Center
10:55AM 41.3264 -95.9242 145° Southeast 108 124 1,400 -500 Descending Minneapolis Center
10:55AM 41.3236 -95.9147 111° Southeast 137 158 1,400 -228 Level Minneapolis Center
10:56AM 41.2919 -95.8864 146° Southeast 130 150 1,100 -290 Descending Minneapolis Center

Login

Don't have an account? Register now (free) for customized features, flight alerts, and more!